Time;durP1;ratioP1;P1;durP2;ratioP2;P2;SDS_P1;SDS_P2;PMS_P1;PMS_P2;Temp;Humidity;BMP_temperature;BMP_pressure;BME280_temperature;BME280_humidity;BME280_pressure;Samples;Min_cycle;Max_cycle;Signal;HPM_P1;HPM_P2
2023/03/22 00:01:19;;;;;;;19.25;6.18;;;;;;;;;;6313575;22;20003;-95
2023/03/22 00:03:46;;;;;;;29.67;8.38;;;;;;;;;;6315736;22;20003;-94
2023/03/22 00:06:12;;;;;;;26.42;9.07;;;;;;;;;;6315287;22;20003;-94
2023/03/22 00:08:39;;;;;;;13.35;6.35;;;;;;;;;;6315376;22;20448;-94
2023/03/22 00:11:12;;;;;;;21.95;7.80;;;;;;;;;;6315903;22;20094;-94
2023/03/22 00:13:38;;;;;;;15.68;4.93;;;;;;;;;;6289994;22;20003;-95
2023/03/22 00:16:06;;;;;;;22.15;7.82;;;;;;;;;;6290143;22;20015;-95
2023/03/22 00:18:40;;;;;;;11.40;4.40;;;;;;;;;;6318792;22;20004;-94
2023/03/22 00:21:10;;;;;;;30.10;8.40;;;;;;;;;;6318036;22;20429;-94
2023/03/22 00:23:37;;;;;;;27.08;9.75;;;;;;;;;;6316162;22;20446;-94
2023/03/22 00:26:03;;;;;;;23.23;8.80;;;;;;;;;;6290003;22;20038;-96
2023/03/22 00:28:36;;;;;;;23.90;8.10;;;;;;;;;;6315243;22;20515;-94
2023/03/22 00:31:04;;;;;;;17.33;8.52;;;;;;;;;;6289613;22;20030;-93
2023/03/22 00:33:32;;;;;;;14.32;6.00;;;;;;;;;;6315530;22;20011;-94
2023/03/22 00:35:59;;;;;;;21.98;8.95;;;;;;;;;;6314347;22;20040;-96
2023/03/22 00:38:35;;;;;;;12.60;5.57;;;;;;;;;;6314154;22;20457;-93
2023/03/22 00:41:09;;;;;;;24.48;7.65;;;;;;;;;;6291148;22;20007;-94
2023/03/22 00:43:50;;;;;;;21.50;6.90;;;;;;;;;;6314479;22;20018;-94
2023/03/22 00:46:18;;;;;;;24.27;7.57;;;;;;;;;;6316676;22;20003;-94
2023/03/22 00:48:44;;;;;;;12.55;5.07;;;;;;;;;;6316439;22;20034;-94
2023/03/22 00:51:11;;;;;;;19.92;6.88;;;;;;;;;;6292118;22;20010;-94
2023/03/22 00:53:41;;;;;;;21.35;7.07;;;;;;;;;;6318972;22;20006;-94
2023/03/22 00:56:12;;;;;;;9.63;5.20;;;;;;;;;;6317305;22;20013;-94
2023/03/22 00:58:39;;;;;;;11.52;4.25;;;;;;;;;;6293326;22;20011;-94
2023/03/22 01:01:12;;;;;;;17.65;5.93;;;;;;;;;;6294066;22;20435;-94
2023/03/22 01:03:39;;;;;;;14.82;5.30;;;;;;;;;;6321773;22;20002;-94
2023/03/22 01:06:07;;;;;;;19.85;5.88;;;;;;;;;;6293434;22;20343;-94
2023/03/22 01:08:37;;;;;;;13.05;5.13;;;;;;;;;;6296235;22;20264;-94
2023/03/22 01:11:04;;;;;;;15.45;5.68;;;;;;;;;;6293539;22;20010;-94
2023/03/22 01:13:30;;;;;;;16.85;4.80;;;;;;;;;;6319732;22;20022;-94
2023/03/22 01:15:57;;;;;;;12.32;4.38;;;;;;;;;;6292149;22;20029;-95
2023/03/22 01:18:33;;;;;;;14.38;4.75;;;;;;;;;;6318608;22;20003;-95
2023/03/22 01:21:12;;;;;;;15.02;3.95;;;;;;;;;;6320762;22;20051;-94
2023/03/22 01:23:38;;;;;;;10.57;4.38;;;;;;;;;;6293030;22;20007;-95
2023/03/22 01:26:09;;;;;;;10.02;2.53;;;;;;;;;;6319701;22;19999;-94
2023/03/22 01:28:39;;;;;;;8.15;3.08;;;;;;;;;;6320445;22;20009;-94
2023/03/22 01:31:06;;;;;;;11.20;3.92;;;;;;;;;;6320550;22;20623;-95
2023/03/22 01:33:32;;;;;;;13.60;4.07;;;;;;;;;;6293335;22;20017;-94
2023/03/22 01:36:00;;;;;;;16.05;3.70;;;;;;;;;;6294577;22;20022;-94
2023/03/22 01:38:26;;;;;;;18.73;4.03;;;;;;;;;;6296634;22;20011;-94
2023/03/22 01:40:52;;;;;;;12.15;2.92;;;;;;;;;;6294134;22;20541;-94
2023/03/22 01:43:25;;;;;;;20.98;4.25;;;;;;;;;;6316019;22;20023;-95
2023/03/22 01:45:52;;;;;;;19.30;3.80;;;;;;;;;;6291799;22;20011;-94
2023/03/22 01:48:40;;;;;;;12.07;3.70;;;;;;;;;;6314588;22;20011;-94
2023/03/22 01:51:07;;;;;;;7.32;2.72;;;;;;;;;;6289141;22;20038;-94
2023/03/22 01:53:38;;;;;;;13.90;3.20;;;;;;;;;;6315334;22;20011;-94
2023/03/22 01:56:06;;;;;;;6.47;1.50;;;;;;;;;;6314298;22;20007;-94
2023/03/22 01:58:36;;;;;;;9.57;3.08;;;;;;;;;;6288888;22;20027;-93
2023/03/22 02:01:03;;;;;;;5.97;2.85;;;;;;;;;;6312409;22;20033;-95
2023/03/22 02:03:35;;;;;;;9.80;2.20;;;;;;;;;;6313304;22;19999;-94
2023/03/22 02:06:01;;;;;;;8.60;3.13;;;;;;;;;;6314822;22;20425;-95
2023/03/22 02:08:28;;;;;;;8.10;2.35;;;;;;;;;;6313220;22;20007;-96
2023/03/22 02:10:54;;;;;;;9.20;2.35;;;;;;;;;;6314427;22;20409;-95
2023/03/22 02:13:46;;;;;;;9.23;2.38;;;;;;;;;;6315369;22;20011;-93
2023/03/22 02:16:31;;;;;;;7.78;2.42;;;;;;;;;;6314799;22;20014;-94
2023/03/22 02:19:16;;;;;;;15.45;2.55;;;;;;;;;;6314728;22;20019;-93
2023/03/22 02:22:22;;;;;;;9.90;2.40;;;;;;;;;;6314205;22;20010;-94
2023/03/22 02:25:06;;;;;;;8.18;1.70;;;;;;;;;;6137416;23;20073;-95
2023/03/22 02:27:55;;;;;;;14.70;2.75;;;;;;;;;;6138803;23;20009;-94
2023/03/22 02:30:39;;;;;;;7.25;2.40;;;;;;;;;;6136727;23;20014;-95
2023/03/22 02:33:14;;;;;;;10.25;1.80;;;;;;;;;;6162450;23;20033;-94
2023/03/22 02:35:45;;;;;;;6.90;2.00;;;;;;;;;;6162130;23;20010;-94
2023/03/22 02:38:11;;;;;;;10.77;2.00;;;;;;;;;;6137824;23;20017;-94
2023/03/22 02:40:46;;;;;;;10.82;2.28;;;;;;;;;;6165690;23;20005;-94
2023/03/22 02:43:22;;;;;;;5.67;1.80;;;;;;;;;;6276399;22;20015;-94
2023/03/22 02:46:09;;;;;;;14.00;1.73;;;;;;;;;;6314914;22;20234;-93
2023/03/22 02:48:37;;;;;;;9.88;1.77;;;;;;;;;;6314503;22;20015;-94
2023/03/22 02:51:10;;;;;;;8.57;1.15;;;;;;;;;;6314933;22;20041;-94
2023/03/22 02:53:50;;;;;;;3.13;1.10;;;;;;;;;;6315320;22;20021;-94
2023/03/22 02:56:17;;;;;;;8.15;1.95;;;;;;;;;;6311915;22;19992;-94
2023/03/22 02:59:01;;;;;;;4.40;1.63;;;;;;;;;;6313132;22;20007;-95
2023/03/22 03:01:28;;;;;;;3.47;1.52;;;;;;;;;;6312999;22;20003;-94
2023/03/22 03:04:03;;;;;;;8.68;1.88;;;;;;;;;;6315500;22;20342;-95
2023/03/22 03:06:34;;;;;;;15.07;2.80;;;;;;;;;;6315578;22;20003;-94
2023/03/22 03:09:03;;;;;;;8.82;2.42;;;;;;;;;;6314814;22;20059;-94
2023/03/22 03:11:30;;;;;;;12.23;1.70;;;;;;;;;;6312060;22;20023;-94
2023/03/22 03:13:56;;;;;;;14.52;2.00;;;;;;;;;;6288974;22;20017;-95
2023/03/22 03:16:26;;;;;;;12.73;1.98;;;;;;;;;;6286755;22;20029;-93
2023/03/22 03:19:04;;;;;;;7.85;1.80;;;;;;;;;;6314036;22;20007;-94
2023/03/22 03:21:45;;;;;;;14.02;1.92;;;;;;;;;;6312430;22;20007;-93
2023/03/22 03:24:32;;;;;;;7.85;2.03;;;;;;;;;;6313720;22;19999;-94
2023/03/22 03:26:58;;;;;;;6.20;2.47;;;;;;;;;;6312110;22;20011;-94
2023/03/22 03:29:27;;;;;;;9.52;1.80;;;;;;;;;;6311863;22;20094;-93
2023/03/22 03:32:00;;;;;;;8.32;1.55;;;;;;;;;;6312116;22;20094;-95
2023/03/22 03:34:29;;;;;;;8.77;2.15;;;;;;;;;;6312003;22;20003;-94
2023/03/22 03:37:07;;;;;;;12.20;2.47;;;;;;;;;;6311392;22;20034;-94
2023/03/22 03:39:35;;;;;;;11.82;2.45;;;;;;;;;;6311239;22;19999;-93
2023/03/22 03:42:03;;;;;;;8.07;1.73;;;;;;;;;;6312500;22;20011;-94
2023/03/22 03:44:30;;;;;;;11.05;1.85;;;;;;;;;;6309967;22;20007;-93
2023/03/22 03:46:57;;;;;;;8.88;2.10;;;;;;;;;;6310072;22;20011;-94
2023/03/22 03:49:23;;;;;;;11.32;1.88;;;;;;;;;;6309813;22;20012;-93
2023/03/22 03:51:51;;;;;;;17.13;2.60;;;;;;;;;;6310207;22;20060;-93
2023/03/22 03:54:20;;;;;;;10.10;2.13;;;;;;;;;;6310433;22;20103;-93
2023/03/22 03:56:47;;;;;;;9.90;1.48;;;;;;;;;;6309630;22;20433;-93
2023/03/22 03:59:15;;;;;;;13.57;2.97;;;;;;;;;;6284760;22;20007;-93
2023/03/22 04:01:48;;;;;;;11.40;2.42;;;;;;;;;;6285299;22;20070;-93
2023/03/22 04:04:15;;;;;;;9.35;1.50;;;;;;;;;;6286533;22;20057;-93
2023/03/22 04:06:41;;;;;;;19.17;2.50;;;;;;;;;;6283984;22;20085;-94
2023/03/22 04:09:08;;;;;;;5.97;1.65;;;;;;;;;;6311372;22;20007;-93
2023/03/22 04:11:34;;;;;;;10.68;1.98;;;;;;;;;;6310438;22;19999;-93
2023/03/22 04:14:08;;;;;;;12.52;2.28;;;;;;;;;;6311326;22;20082;-94
2023/03/22 04:16:35;;;;;;;13.52;2.25;;;;;;;;;;6284820;22;20296;-94
2023/03/22 04:19:01;;;;;;;11.70;2.83;;;;;;;;;;6284836;22;20003;-93
2023/03/22 04:21:27;;;;;;;11.35;2.58;;;;;;;;;;6285924;22;20011;-93
2023/03/22 04:23:54;;;;;;;12.43;2.03;;;;;;;;;;6287100;22;20090;-93
2023/03/22 04:26:21;;;;;;;13.10;2.58;;;;;;;;;;6287520;22;20000;-94
2023/03/22 04:28:48;;;;;;;16.77;2.30;;;;;;;;;;6310229;22;20022;-94
2023/03/22 04:31:14;;;;;;;8.77;1.48;;;;;;;;;;6289170;22;20038;-93
2023/03/22 04:34:04;;;;;;;6.40;1.92;;;;;;;;;;6288856;22;20007;-92
2023/03/22 04:36:35;;;;;;;9.02;3.15;;;;;;;;;;6315744;22;20022;-94
2023/03/22 04:39:04;;;;;;;6.53;2.15;;;;;;;;;;6315318;22;20011;-92
2023/03/22 04:41:31;;;;;;;9.95;3.05;;;;;;;;;;6314117;22;20018;-93
2023/03/22 04:44:05;;;;;;;13.18;2.38;;;;;;;;;;6291824;22;20053;-94
2023/03/22 04:46:32;;;;;;;8.23;2.03;;;;;;;;;;6314282;22;20029;-93
2023/03/22 04:49:02;;;;;;;3.05;1.85;;;;;;;;;;6313352;22;20007;-94
2023/03/22 04:51:29;;;;;;;8.90;2.95;;;;;;;;;;6313183;22;20003;-94
2023/03/22 04:53:55;;;;;;;14.68;3.50;;;;;;;;;;6313474;22;20070;-93
2023/03/22 04:56:21;;;;;;;15.77;3.92;;;;;;;;;;6285914;22;20008;-95
2023/03/22 04:58:48;;;;;;;14.25;3.55;;;;;;;;;;6288223;22;20022;-95
2023/03/22 05:01:15;;;;;;;11.23;4.22;;;;;;;;;;6290618;22;20460;-94
2023/03/22 05:03:44;;;;;;;7.45;3.83;;;;;;;;;;6314398;22;20045;-95
2023/03/22 05:06:14;;;;;;;12.60;4.03;;;;;;;;;;6288756;22;20225;-94
2023/03/22 05:08:40;;;;;;;7.88;2.75;;;;;;;;;;6312268;22;20003;-94
2023/03/22 05:11:15;;;;;;;10.63;4.57;;;;;;;;;;6309569;22;20007;-95
2023/03/22 05:13:42;;;;;;;9.38;3.00;;;;;;;;;;6312818;22;20004;-94
2023/03/22 05:16:09;;;;;;;10.43;4.32;;;;;;;;;;6286809;22;20011;-95
2023/03/22 05:18:44;;;;;;;10.25;4.13;;;;;;;;;;6287868;22;20061;-95
2023/03/22 05:21:14;;;;;;;20.23;4.43;;;;;;;;;;6287221;22;20007;-95
2023/03/22 05:23:44;;;;;;;14.23;5.55;;;;;;;;;;6312554;22;20567;-94
2023/03/22 05:26:14;;;;;;;20.30;4.93;;;;;;;;;;6312595;22;20307;-95
2023/03/22 05:28:41;;;;;;;11.40;4.85;;;;;;;;;;6313644;22;20338;-95
2023/03/22 05:31:09;;;;;;;19.80;6.00;;;;;;;;;;6315103;22;20030;-95
2023/03/22 05:33:36;;;;;;;13.68;5.13;;;;;;;;;;6287475;22;20015;-95
2023/03/22 05:36:03;;;;;;;12.07;4.97;;;;;;;;;;6314417;22;20374;-94
2023/03/22 05:38:30;;;;;;;12.57;4.70;;;;;;;;;;6288123;22;20018;-94
2023/03/22 05:40:56;;;;;;;11.07;4.70;;;;;;;;;;6313448;22;19999;-94
2023/03/22 05:43:22;;;;;;;12.52;5.00;;;;;;;;;;6290388;22;20023;-94
2023/03/22 05:45:50;;;;;;;13.85;5.22;;;;;;;;;;6315992;22;20003;-94
2023/03/22 05:48:24;;;;;;;18.25;6.88;;;;;;;;;;6288596;22;20011;-94
2023/03/22 05:50:56;;;;;;;23.70;7.10;;;;;;;;;;6290490;22;20349;-95
2023/03/22 05:53:23;;;;;;;14.52;7.07;;;;;;;;;;6315657;22;20045;-95
2023/03/22 05:55:49;;;;;;;14.52;6.00;;;;;;;;;;6315592;22;20007;-93
2023/03/22 05:58:17;;;;;;;22.70;7.82;;;;;;;;;;6289809;22;20479;-94
2023/03/22 06:00:51;;;;;;;12.90;6.63;;;;;;;;;;6314394;22;20018;-95
2023/03/22 06:03:18;;;;;;;12.65;6.72;;;;;;;;;;6291475;22;20003;-94
2023/03/22 06:05:45;;;;;;;14.23;4.53;;;;;;;;;;6288566;22;20008;-93
2023/03/22 06:08:12;;;;;;;10.93;5.88;;;;;;;;;;6289852;22;20010;-95
2023/03/22 06:10:51;;;;;;;20.25;8.77;;;;;;;;;;6285957;22;20011;-94
2023/03/22 06:13:20;;;;;;;7.07;3.80;;;;;;;;;;6314973;22;20426;-93
2023/03/22 06:15:46;;;;;;;15.10;5.93;;;;;;;;;;6313415;22;20007;-94
2023/03/22 06:18:15;;;;;;;15.23;7.28;;;;;;;;;;6314037;22;20260;-95
2023/03/22 06:20:43;;;;;;;18.38;7.90;;;;;;;;;;6313439;22;20006;-95
2023/03/22 06:23:09;;;;;;;18.42;8.27;;;;;;;;;;6288417;22;20011;-94
2023/03/22 06:25:37;;;;;;;20.00;7.35;;;;;;;;;;6314116;22;20007;-95
2023/03/22 06:28:03;;;;;;;21.02;7.28;;;;;;;;;;6314723;22;20003;-94
2023/03/22 06:30:33;;;;;;;14.98;4.57;;;;;;;;;;6287784;22;20008;-93
2023/03/22 06:33:03;;;;;;;15.55;6.03;;;;;;;;;;6289116;22;20510;-94
2023/03/22 06:35:30;;;;;;;26.48;8.70;;;;;;;;;;6312187;22;20029;-94
2023/03/22 06:38:06;;;;;;;9.88;4.97;;;;;;;;;;6288254;22;20294;-93
2023/03/22 06:40:34;;;;;;;15.68;5.85;;;;;;;;;;6286760;22;20006;-93
2023/03/22 06:43:12;;;;;;;26.45;7.63;;;;;;;;;;6314031;22;20752;-93
2023/03/22 06:45:38;;;;;;;17.75;8.05;;;;;;;;;;6280786;22;20035;-94
2023/03/22 06:48:05;;;;;;;15.68;8.90;;;;;;;;;;6231169;22;20016;-93
2023/03/22 06:50:32;;;;;;;23.58;7.75;;;;;;;;;;6282028;22;20077;-94
2023/03/22 06:55:45;;;;;;;;;;;;;;;;;;6243893;22;20083;-93
2023/03/22 06:58:14;;;;;;;15.80;6.13;;;;;;;;;;6255960;22;19907;-94
2023/03/22 07:00:40;;;;;;;11.07;4.55;;;;;;;;;;6257184;22;20058;-93
2023/03/22 07:03:06;;;;;;;8.00;4.60;;;;;;;;;;6246114;22;20464;-94
2023/03/22 07:05:35;;;;;;;11.80;5.22;;;;;;;;;;6257806;22;19999;-95
2023/03/22 07:08:02;;;;;;;22.50;8.80;;;;;;;;;;6233524;22;20019;-92
2023/03/22 07:10:29;;;;;;;20.00;6.90;;;;;;;;;;6232052;22;20043;-94
2023/03/22 07:12:56;;;;;;;12.50;6.80;;;;;;;;;;6231873;22;20012;-93
2023/03/22 07:15:31;;;;;;;15.77;7.07;;;;;;;;;;6234863;22;19992;-93
2023/03/22 07:18:10;;;;;;;19.77;7.38;;;;;;;;;;6271747;22;20023;-94
2023/03/22 07:20:39;;;;;;;10.13;3.92;;;;;;;;;;6269063;22;20008;-95
2023/03/22 07:23:08;;;;;;;26.67;8.07;;;;;;;;;;6282386;22;20011;-96
2023/03/22 07:25:34;;;;;;;17.17;5.50;;;;;;;;;;6255419;22;20027;-94
2023/03/22 07:28:00;;;;;;;16.25;6.93;;;;;;;;;;6256961;22;20004;-95
2023/03/22 07:30:36;;;;;;;23.70;6.00;;;;;;;;;;6257019;22;20103;-96
2023/03/22 07:33:04;;;;;;;17.42;6.13;;;;;;;;;;6232143;22;20448;-95
2023/03/22 07:35:31;;;;;;;20.10;7.75;;;;;;;;;;6255517;22;20010;-95
2023/03/22 07:38:00;;;;;;;17.05;7.70;;;;;;;;;;6256089;22;20446;-95
2023/03/22 07:40:30;;;;;;;19.73;7.68;;;;;;;;;;6256824;22;20030;-96
2023/03/22 07:42:59;;;;;;;16.55;7.13;;;;;;;;;;6255557;22;20004;-95
2023/03/22 07:45:32;;;;;;;12.05;5.50;;;;;;;;;;6314611;22;20026;-95
2023/03/22 07:47:59;;;;;;;18.75;7.43;;;;;;;;;;6288236;22;20349;-96
2023/03/22 07:50:25;;;;;;;16.70;6.88;;;;;;;;;;6286424;22;20093;-95
2023/03/22 07:52:51;;;;;;;25.08;8.90;;;;;;;;;;6288408;22;20011;-95
2023/03/22 07:55:19;;;;;;;18.08;6.82;;;;;;;;;;6313677;22;20034;-95
2023/03/22 07:57:45;;;;;;;16.88;7.10;;;;;;;;;;6288301;22;20089;-95
2023/03/22 08:00:12;;;;;;;18.15;7.00;;;;;;;;;;6313770;22;19999;-94
2023/03/22 08:02:38;;;;;;;13.48;5.00;;;;;;;;;;6316704;22;20012;-94
2023/03/22 08:10:24;;;;;;;13.05;5.28;;;;;;;;;;6305066;22;20031;-92
2023/03/22 08:12:51;;;;;;;18.42;5.32;;;;;;;;;;6264991;22;20022;-90
2023/03/22 08:15:17;;;;;;;17.52;5.50;;;;;;;;;;6288975;22;20007;-93
2023/03/22 08:17:45;;;;;;;12.95;5.15;;;;;;;;;;6290707;22;20041;-90
2023/03/22 08:20:11;;;;;;;20.92;5.57;;;;;;;;;;6289104;22;20441;-91
2023/03/22 08:22:41;;;;;;;10.52;5.07;;;;;;;;;;6263089;22;20007;-91
2023/03/22 08:25:07;;;;;;;11.02;4.15;;;;;;;;;;6264509;22;20322;-91
2023/03/22 08:27:33;;;;;;;6.60;3.25;;;;;;;;;;6287157;22;20437;-92
2023/03/22 08:35:44;;;;;;;;;;;;;;;;;;;;;
2023/03/22 08:38:12;;;;;;;9.55;3.47;;;;;;;;;;6302815;22;20026;-91
2023/03/22 08:40:39;;;;;;;11.63;4.00;;;;;;;;;;6283829;22;20526;-92
2023/03/22 08:43:11;;;;;;;10.05;3.42;;;;;;;;;;6298094;22;20078;-91
2023/03/22 08:45:38;;;;;;;14.48;4.50;;;;;;;;;;6340431;22;20034;-92
2023/03/22 08:48:05;;;;;;;10.93;4.25;;;;;;;;;;6323061;22;20002;-93
2023/03/22 08:50:33;;;;;;;6.97;3.53;;;;;;;;;;6321415;22;20040;-93
2023/03/22 08:53:02;;;;;;;12.00;4.43;;;;;;;;;;6320504;22;20014;-94
2023/03/22 08:55:28;;;;;;;10.05;4.05;;;;;;;;;;6294834;22;20018;-91
2023/03/22 08:58:15;;;;;;;10.80;4.32;;;;;;;;;;6294445;22;20010;-94
2023/03/22 09:00:47;;;;;;;12.02;4.35;;;;;;;;;;6319955;22;20038;-92
2023/03/22 09:03:16;;;;;;;9.23;3.00;;;;;;;;;;6323201;22;20094;-93
2023/03/22 09:05:43;;;;;;;12.25;4.22;;;;;;;;;;6298466;22;20011;-92
2023/03/22 09:08:18;;;;;;;4.18;2.55;;;;;;;;;;6323246;22;20058;-90
2023/03/22 09:10:50;;;;;;;9.70;3.75;;;;;;;;;;6298407;22;20056;-93
2023/03/22 09:13:23;;;;;;;8.38;2.78;;;;;;;;;;6323291;22;20007;-92
2023/03/22 09:15:51;;;;;;;15.07;3.95;;;;;;;;;;6325113;22;20013;-93
2023/03/22 09:18:19;;;;;;;11.63;3.00;;;;;;;;;;6322875;22;20060;-93
2023/03/22 09:20:45;;;;;;;9.82;3.30;;;;;;;;;;6324140;22;20011;-93
2023/03/22 09:23:14;;;;;;;16.52;3.78;;;;;;;;;;6323879;22;20082;-93
2023/03/22 09:25:42;;;;;;;12.88;3.10;;;;;;;;;;6318780;22;20006;-93
2023/03/22 09:53:21;;;;;;;12.48;4.25;;;;;;;;;;6326076;22;20107;-95
2023/03/22 09:56:01;;;;;;;13.10;2.80;;;;;;;;;;6293475;22;20071;-95
2023/03/22 09:58:32;;;;;;;7.10;2.88;;;;;;;;;;6293137;22;20033;-95
2023/03/22 10:01:03;;;;;;;7.20;2.70;;;;;;;;;;6319710;22;19999;-95
2023/03/22 10:03:41;;;;;;;18.90;3.15;;;;;;;;;;6291441;22;20014;-94
2023/03/22 10:06:13;;;;;;;9.10;2.58;;;;;;;;;;6292037;22;20200;-94
2023/03/22 10:08:58;;;;;;;7.18;2.85;;;;;;;;;;6292858;22;20003;-94
2023/03/22 10:11:27;;;;;;;14.02;3.78;;;;;;;;;;6292224;22;20003;-95
2023/03/22 10:13:59;;;;;;;16.30;4.15;;;;;;;;;;6293032;22;20126;-94
2023/03/22 10:16:28;;;;;;;12.45;3.45;;;;;;;;;;6293535;22;20393;-94
2023/03/22 10:18:57;;;;;;;7.03;2.90;;;;;;;;;;6292587;22;20003;-92
2023/03/22 10:21:25;;;;;;;8.45;2.90;;;;;;;;;;6264141;22;20013;-94
2023/03/22 10:23:55;;;;;;;14.07;3.80;;;;;;;;;;6290371;22;20003;-94
2023/03/22 10:26:40;;;;;;;3.65;2.55;;;;;;;;;;6317237;22;20022;-93
2023/03/22 10:29:25;;;;;;;11.00;3.40;;;;;;;;;;6289852;22;20034;-93
2023/03/22 10:31:51;;;;;;;10.15;4.40;;;;;;;;;;6317683;22;20007;-94
2023/03/22 10:34:23;;;;;;;4.45;2.72;;;;;;;;;;6321820;22;20045;-93
2023/03/22 10:36:52;;;;;;;8.43;2.90;;;;;;;;;;6319686;22;20040;-94
2023/03/22 10:39:32;;;;;;;12.10;4.10;;;;;;;;;;6320832;22;20421;-94
2023/03/22 10:42:00;;;;;;;9.75;3.00;;;;;;;;;;6320473;22;20010;-94
2023/03/22 10:44:28;;;;;;;6.97;2.88;;;;;;;;;;6319048;22;20056;-94
2023/03/22 10:46:55;;;;;;;6.32;3.38;;;;;;;;;;6292556;22;20007;-93
2023/03/22 10:49:27;;;;;;;4.28;2.40;;;;;;;;;;6319599;22;20007;-93
2023/03/22 10:51:56;;;;;;;7.28;2.92;;;;;;;;;;6320328;22;20071;-94
2023/03/22 10:54:23;;;;;;;6.05;2.17;;;;;;;;;;6322894;22;20022;-94
2023/03/22 10:56:52;;;;;;;10.75;3.10;;;;;;;;;;6319094;22;20085;-93
2023/03/22 10:59:37;;;;;;;13.80;3.60;;;;;;;;;;6294269;22;20011;-95
2023/03/22 11:02:10;;;;;;;11.77;2.83;;;;;;;;;;6318332;22;20025;-93
2023/03/22 11:04:37;;;;;;;6.38;3.00;;;;;;;;;;6295035;22;20003;-93
2023/03/22 11:07:03;;;;;;;7.60;3.97;;;;;;;;;;6317821;22;20002;-92
2023/03/22 11:09:29;;;;;;;11.40;2.97;;;;;;;;;;6293010;22;20014;-92
2023/03/22 11:11:58;;;;;;;12.30;4.70;;;;;;;;;;6292559;22;20083;-92
2023/03/22 11:14:30;;;;;;;5.30;2.00;;;;;;;;;;6319055;22;20026;-92
2023/03/22 11:16:57;;;;;;;16.30;3.83;;;;;;;;;;6319102;22;20007;-93
2023/03/22 11:19:36;;;;;;;10.43;2.85;;;;;;;;;;6318387;22;20025;-94
2023/03/22 11:22:04;;;;;;;7.35;2.88;;;;;;;;;;6320472;22;19999;-93
2023/03/22 11:24:32;;;;;;;5.88;2.05;;;;;;;;;;6320112;22;20006;-92
2023/03/22 11:27:24;;;;;;;6.78;2.60;;;;;;;;;;6319204;22;20007;-94
2023/03/22 11:29:52;;;;;;;7.15;2.50;;;;;;;;;;6338138;22;20345;-93
2023/03/22 11:32:26;;;;;;;8.52;2.03;;;;;;;;;;6315428;22;20007;-93
2023/03/22 11:35:04;;;;;;;10.35;2.25;;;;;;;;;;6316862;22;19998;-93
2023/03/22 11:37:30;;;;;;;14.93;3.70;;;;;;;;;;6315562;22;20003;-92
2023/03/22 11:40:03;;;;;;;9.23;2.50;;;;;;;;;;6289659;22;20011;-92
2023/03/22 11:42:33;;;;;;;4.82;2.30;;;;;;;;;;6314930;22;20002;-92
2023/03/22 11:45:01;;;;;;;10.02;3.28;;;;;;;;;;6342058;22;19999;-93
2023/03/22 11:47:34;;;;;;;8.18;3.13;;;;;;;;;;6315669;22;19998;-93
2023/03/22 11:50:03;;;;;;;3.10;2.10;;;;;;;;;;6316160;22;20007;-94
2023/03/22 11:52:32;;;;;;;8.57;2.25;;;;;;;;;;6316843;22;20006;-92
2023/03/22 11:54:59;;;;;;;12.32;2.22;;;;;;;;;;6295272;22;20034;-91
2023/03/22 11:57:27;;;;;;;6.38;1.88;;;;;;;;;;6291049;22;20007;-92
2023/03/22 11:59:57;;;;;;;9.80;3.13;;;;;;;;;;6315700;22;20013;-92
2023/03/22 12:02:26;;;;;;;9.10;3.90;;;;;;;;;;6317056;22;20003;-94
2023/03/22 12:05:22;;;;;;;8.95;2.13;;;;;;;;;;6318261;22;19999;-92
2023/03/22 12:07:50;;;;;;;7.10;2.88;;;;;;;;;;6263891;22;20003;-92
2023/03/22 12:10:25;;;;;;;7.70;3.28;;;;;;;;;;6320017;22;20006;-93
2023/03/22 12:13:00;;;;;;;11.55;2.25;;;;;;;;;;6347786;22;20056;-93
2023/03/22 12:15:29;;;;;;;4.50;2.60;;;;;;;;;;6318503;22;20079;-93
2023/03/22 12:18:02;;;;;;;2.47;1.33;;;;;;;;;;6293612;22;20039;-94
2023/03/22 12:20:47;;;;;;;9.50;3.45;;;;;;;;;;6318902;22;20002;-95
2023/03/22 12:23:25;;;;;;;8.57;3.10;;;;;;;;;;6317390;22;20109;-94
2023/03/22 12:26:04;;;;;;;11.57;2.10;;;;;;;;;;6317555;22;20030;-94
2023/03/22 12:28:37;;;;;;;6.45;2.90;;;;;;;;;;6319218;22;20060;-92
2023/03/22 12:31:06;;;;;;;7.93;2.40;;;;;;;;;;6318300;22;20006;-94
2023/03/22 12:33:37;;;;;;;6.53;2.05;;;;;;;;;;6317121;22;20310;-92
2023/03/22 12:36:05;;;;;;;6.28;1.98;;;;;;;;;;6317970;22;20420;-94
2023/03/22 12:38:35;;;;;;;5.28;2.00;;;;;;;;;;6292362;22;20014;-93
2023/03/22 12:41:03;;;;;;;8.88;2.92;;;;;;;;;;6317311;22;19999;-93
2023/03/22 12:43:48;;;;;;;7.97;3.20;;;;;;;;;;6316426;22;19999;-93
2023/03/22 12:46:18;;;;;;;8.13;3.42;;;;;;;;;;6316184;22;20429;-93
2023/03/22 12:48:51;;;;;;;8.00;2.78;;;;;;;;;;6317485;22;20006;-93
2023/03/22 12:51:17;;;;;;;4.75;2.13;;;;;;;;;;6317748;22;20007;-93
2023/03/22 12:53:52;;;;;;;5.97;2.63;;;;;;;;;;6295897;22;20223;-93
2023/03/22 12:56:36;;;;;;;4.97;1.83;;;;;;;;;;6376751;22;20463;-92
2023/03/22 12:59:04;;;;;;;11.65;3.72;;;;;;;;;;6348441;22;20002;-94
2023/03/22 13:01:46;;;;;;;9.93;4.03;;;;;;;;;;6376543;22;20029;-92
2023/03/22 13:04:27;;;;;;;6.47;3.13;;;;;;;;;;6349364;22;20006;-92
2023/03/22 13:06:55;;;;;;;10.05;4.05;;;;;;;;;;6350000;22;19998;-93
2023/03/22 13:09:30;;;;;;;12.18;3.13;;;;;;;;;;6375550;22;19998;-92
2023/03/22 13:12:17;;;;;;;11.63;3.45;;;;;;;;;;6349023;22;20003;-94
2023/03/22 13:14:57;;;;;;;12.48;3.13;;;;;;;;;;6348648;22;20034;-94
2023/03/22 13:17:23;;;;;;;12.50;3.00;;;;;;;;;;6348215;22;20079;-93
2023/03/22 13:19:58;;;;;;;12.43;3.85;;;;;;;;;;6348145;22;20006;-92
2023/03/22 13:25:25;;;;;;;7.90;3.20;;;;;;;;;;6358207;22;20021;-93
2023/03/22 13:27:58;;;;;;;15.35;3.53;;;;;;;;;;6347727;22;20052;-93
2023/03/22 13:30:24;;;;;;;7.50;3.33;;;;;;;;;;6348408;22;20037;-93
2023/03/22 13:33:02;;;;;;;3.53;1.98;;;;;;;;;;6348043;22;20416;-93
2023/03/22 13:35:50;;;;;;;8.77;3.97;;;;;;;;;;6347234;22;20010;-93
2023/03/22 13:38:26;;;;;;;8.95;3.60;;;;;;;;;;6375928;22;20033;-94
2023/03/22 13:40:59;;;;;;;10.35;3.58;;;;;;;;;;6348176;22;20009;-93
2023/03/22 13:43:28;;;;;;;11.55;4.00;;;;;;;;;;6348254;22;20419;-93
2023/03/22 13:46:03;;;;;;;6.65;3.33;;;;;;;;;;6347870;22;20002;-92
2023/03/22 13:48:31;;;;;;;10.85;3.28;;;;;;;;;;6347853;22;20006;-94
2023/03/22 13:51:07;;;;;;;10.35;3.53;;;;;;;;;;6347994;22;20011;-94
2023/03/22 13:53:36;;;;;;;9.50;2.60;;;;;;;;;;6347755;22;20003;-94
2023/03/22 13:56:12;;;;;;;18.63;4.38;;;;;;;;;;6320228;22;20015;-92
2023/03/22 13:58:51;;;;;;;7.25;4.35;;;;;;;;;;6316358;22;20014;-94
2023/03/22 14:01:24;;;;;;;7.90;2.35;;;;;;;;;;6316771;22;20006;-92
2023/03/22 14:03:51;;;;;;;4.60;3.15;;;;;;;;;;6316036;22;20089;-94
2023/03/22 14:06:26;;;;;;;8.98;4.00;;;;;;;;;;6316397;22;20049;-94
2023/03/22 14:08:58;;;;;;;3.67;1.87;;;;;;;;;;6317750;22;20018;-95
2023/03/22 14:11:30;;;;;;;4.75;2.60;;;;;;;;;;6315794;22;20965;-94
2023/03/22 14:14:04;;;;;;;13.98;3.55;;;;;;;;;;6315736;22;20006;-96
2023/03/22 14:17:04;;;;;;;7.88;3.60;;;;;;;;;;6316732;22;20079;-96
2023/03/22 14:19:33;;;;;;;8.70;3.10;;;;;;;;;;6316198;22;20023;-95
2023/03/22 14:22:02;;;;;;;8.35;2.28;;;;;;;;;;6317799;22;20026;-94
2023/03/22 14:24:32;;;;;;;10.82;4.50;;;;;;;;;;6315676;22;20011;-96
2023/03/22 14:26:58;;;;;;;12.25;4.78;;;;;;;;;;6316300;22;20061;-96
2023/03/22 14:29:27;;;;;;;6.75;2.83;;;;;;;;;;6317895;22;20002;-96
2023/03/22 14:31:56;;;;;;;18.58;4.57;;;;;;;;;;6316682;22;19999;-96
2023/03/22 14:34:23;;;;;;;10.45;4.43;;;;;;;;;;6342988;22;20009;-96
2023/03/22 14:36:55;;;;;;;10.52;3.30;;;;;;;;;;6317118;22;20025;-96
2023/03/22 14:39:22;;;;;;;9.43;3.53;;;;;;;;;;6315279;22;20007;-95
2023/03/22 14:42:01;;;;;;;7.57;4.00;;;;;;;;;;6316795;22;20092;-95
2023/03/22 14:44:29;;;;;;;7.05;3.22;;;;;;;;;;6316689;22;19999;-95
2023/03/22 14:47:08;;;;;;;5.95;3.85;;;;;;;;;;6343594;22;20009;-95
2023/03/22 14:49:38;;;;;;;7.80;2.53;;;;;;;;;;6315412;22;20009;-94
2023/03/22 14:52:05;;;;;;;6.05;2.55;;;;;;;;;;6314503;22;20384;-94
2023/03/22 14:54:31;;;;;;;3.90;2.05;;;;;;;;;;6296429;22;20025;-94
2023/03/22 14:57:07;;;;;;;5.50;2.20;;;;;;;;;;6346459;22;20651;-94
2023/03/22 14:59:37;;;;;;;9.90;3.40;;;;;;;;;;6321565;22;20006;-94
2023/03/22 15:02:10;;;;;;;25.42;4.50;;;;;;;;;;6348014;22;20017;-93
2023/03/22 15:04:36;;;;;;;7.40;4.45;;;;;;;;;;6320801;22;20011;-93
2023/03/22 15:07:02;;;;;;;7.57;3.17;;;;;;;;;;6321789;22;20417;-93
2023/03/22 15:09:29;;;;;;;4.75;2.50;;;;;;;;;;6348704;22;20007;-93
2023/03/22 15:12:04;;;;;;;6.32;4.15;;;;;;;;;;6349174;22;20051;-94
2023/03/22 15:14:35;;;;;;;13.90;3.88;;;;;;;;;;6347035;22;20006;-94
2023/03/22 15:17:04;;;;;;;11.55;3.42;;;;;;;;;;6347635;22;20021;-94
2023/03/22 15:19:35;;;;;;;8.75;3.50;;;;;;;;;;6347740;22;20002;-94
2023/03/22 15:25:12;;;;;;;9.67;4.87;;;;;;;;;;6378335;22;20025;-94
2023/03/22 15:27:57;;;;;;;10.98;3.97;;;;;;;;;;6380927;22;20332;-94
2023/03/22 15:30:26;;;;;;;14.52;4.25;;;;;;;;;;6351955;22;20014;-93
2023/03/22 15:33:01;;;;;;;13.73;4.82;;;;;;;;;;6350992;22;20010;-94
2023/03/22 15:38:22;;;;;;;8.00;2.92;;;;;;;;;;6327246;22;20074;-94
2023/03/22 15:40:49;;;;;;;9.63;4.63;;;;;;;;;;6347896;22;20436;-93
2023/03/22 15:43:33;;;;;;;5.28;3.38;;;;;;;;;;6348235;22;20025;-94
2023/03/22 15:46:06;;;;;;;16.40;3.13;;;;;;;;;;6349812;22;20419;-94